Iona Mcallister — WDD4840 — position and weather

sailwx.info

Track history (hours):
 
Tides and Currents Weather Stations Pressure Air Temp Water Temp Dewpoint Dewpoint Depression Visibility Wind Speed Wind Dir Waves Ship Positions

Iona Mcallister

Owner: McAllister Towing & Transportation Co. Inc., Staten Island, NY. More information available from US FCC via Universal Licensing System and Coast Guard Vessel Documentation Center.

Last reported at 2017-Mar-23 04:33 UTC. Time now 2017-Mar-23 12:34 UTC.
Position N 41°38' W 071°22'.

Length 36 m; draft 3 m.

Type: Towing. MMSI: 367149890.

Date/timePositionNaut miles runAvg speedWind from/ knotsBaromVisibWave heightAir tempDewpointWater temp
2017-Mar-23 04:33N 41°38' W 071°22'8 7.7
2017-Mar-23 03:33N 41°46' W 071°23'3 0.3
2017-Mar-22 17:26N 41°49' W 071°24'0 0.0
2017-Mar-22 16:30N 41°49' W 071°24'0 0.0
2017-Mar-22 15:27N 41°49' W 071°24'0 0.0
2017-Mar-22 14:33N 41°49' W 071°24'0 0.0
2017-Mar-22 13:32N 41°49' W 071°24'0 0.2
2017-Mar-22 11:13N 41°49' W 071°24'2 1.5
2017-Mar-22 09:33N 41°46' W 071°22'11 0.3
2017-Mar-20 21:27N 41°35' W 071°23'14 0.8
2017-Mar-20 05:09N 41°49' W 071°24'0 0.0
2017-Mar-20 04:28N 41°49' W 071°24'0 0.0
2017-Mar-20 03:30N 41°49' W 071°24'0 0.0
2017-Mar-20 02:31N 41°49' W 071°24'0 0.0
2017-Mar-19 22:08N 41°49' W 071°24'2 4.0
2017-Mar-19 21:33N 41°47' W 071°22'1 0.7
2017-Mar-19 20:33N 41°46' W 071°22'1 0.7
2017-Mar-19 18:31N 41°48' W 071°23'2 0.7
2017-Mar-19 16:14N 41°49' W 071°24'0 0.0
2017-Mar-19 13:18N 41°49' W 071°24'0 0.0
2017-Mar-19 12:20N 41°49' W 071°24'0 0.0
2017-Mar-19 10:33N 41°49' W 071°24'2 0.2
2017-Mar-19 00:10N 41°47' W 071°23'5 8.5
2017-Mar-18 23:33N 41°42' W 071°20'6 5.2
2017-Mar-18 22:18N 41°37' W 071°24'0 0.0
2017-Mar-18 10:32N 41°37' W 071°24'1 0.8
2017-Mar-18 09:33N 41°36' W 071°24'1 0.7
2017-Mar-18 08:22N 41°37' W 071°24'0 0.0
2017-Mar-18 07:33N 41°37' W 071°24'0 0.0
2017-Mar-18 06:33N 41°37' W 071°24'0 0.0
2017-Mar-18 05:33N 41°37' W 071°24'0 0.0
2017-Mar-18 04:32N 41°37' W 071°24'0 0.0
2017-Mar-18 03:29N 41°37' W 071°24'0 0.0
2017-Mar-18 02:27N 41°37' W 071°24'0 0.1
2017-Mar-17 21:08N 41°37' W 071°24'5 8.6
2017-Mar-17 20:33N 41°41' W 071°21'7 1.5
2017-Mar-17 16:14N 41°48' W 071°23'4 6.3
2017-Mar-17 15:33N 41°43' W 071°21'7 6.8
2017-Mar-17 14:31N 41°37' W 071°24'1 0.2
2017-Mar-17 08:33N 41°38' W 071°22'7 7.3
2017-Mar-17 07:33N 41°45' W 071°22'4 3.8
2017-Mar-17 06:27N 41°49' W 071°24'3 0.3
2017-Mar-16 18:18N 41°46' W 071°23'6 7.4
2017-Mar-16 17:33N 41°40' W 071°21'4 0.6
2017-Mar-16 10:18N 41°37' W 071°24'1 0.3
2017-Mar-16 08:25N 41°36' W 071°24'6 7.4
2017-Mar-16 07:33N 41°42' W 071°20'7 5.9
2017-Mar-16 06:26N 41°48' W 071°24'1 0.7
2017-Mar-16 05:06N 41°48' W 071°23'1 0.3
2017-Mar-16 02:33N 41°47' W 071°22'1 1.0
2017-Mar-16 01:30N 41°48' W 071°23'1 1.1
2017-Mar-16 00:20N 41°49' W 071°24'0 0.0
2017-Mar-15 23:33N 41°49' W 071°24'0 0.0
2017-Mar-15 22:29N 41°49' W 071°24'0 0.0
2017-Mar-15 21:26N 41°49' W 071°24'2 2.4
2017-Mar-15 20:32N 41°47' W 071°23'0 0.3
2017-Mar-15 19:33N 41°47' W 071°22'2 2.1
2017-Mar-15 18:25N 41°49' W 071°24'0 0.0
2017-Mar-15 11:33N 41°49' W 071°24'1 0.8
2017-Mar-15 10:33N 41°48' W 071°24'1 0.7
2017-Mar-15 09:31N 41°49' W 071°24'0 0.0
2017-Mar-15 08:33N 41°49' W 071°24'0 0.0
2017-Mar-15 07:33N 41°49' W 071°24'0 0.0
2017-Mar-15 06:33N 41°49' W 071°24'0 0.0
2017-Mar-15 05:33N 41°49' W 071°24'0 0.0
2017-Mar-15 04:34N 41°49' W 071°24'0 0.0
2017-Mar-15 03:33N 41°49' W 071°24'0 0.0
2017-Mar-15 02:33N 41°49' W 071°24'0 0.0
2017-Mar-15 01:33N 41°49' W 071°24'0 0.0
2017-Mar-15 00:33N 41°49' W 071°24'0 0.0
2017-Mar-14 23:33N 41°49' W 071°24'0 0.0
2017-Mar-14 22:33N 41°49' W 071°24'0 0.0
2017-Mar-14 21:33N 41°49' W 071°24'0 0.0
2017-Mar-14 20:33N 41°49' W 071°24'0 0.0
2017-Mar-14 19:33N 41°49' W 071°24'0 0.0
2017-Mar-14 18:33N 41°49' W 071°24'0 0.0
2017-Mar-14 17:33N 41°49' W 071°24'0 0.0
2017-Mar-14 16:09N 41°49' W 071°24'0 0.0
2017-Mar-14 15:33N 41°49' W 071°24'0 0.0
2017-Mar-14 14:32N 41°49' W 071°24'0 0.0
2017-Mar-14 13:32N 41°49' W 071°24'0 0.0
2017-Mar-14 12:30N 41°49' W 071°24'0 0.0
2017-Mar-14 11:31N 41°49' W 071°24'0 0.0
2017-Mar-14 10:33N 41°49' W 071°24'0 0.0
2017-Mar-14 09:33N 41°49' W 071°24'0 0.0
2017-Mar-14 08:32N 41°49' W 071°24'0 0.0
2017-Mar-14 07:24N 41°49' W 071°24'0 0.0
2017-Mar-14 06:34N 41°49' W 071°24'0 0.0
2017-Mar-14 05:33N 41°49' W 071°24'0 0.0
2017-Mar-14 04:33N 41°49' W 071°24'0 0.0
2017-Mar-14 03:32N 41°49' W 071°24'0 0.0
2017-Mar-14 02:33N 41°49' W 071°24'6 1.4
2017-Mar-13 22:33N 41°44' W 071°22'9 0.6
2017-Mar-13 07:33N 41°35' W 071°24'4 4.4
2017-Mar-13 06:33N 41°39' W 071°22'7 7.5
2017-Mar-13 05:34N 41°47' W 071°22'  
Track history (hours):
 
Tides and Currents Weather Stations Pressure Air Temp Water Temp Dewpoint Dewpoint Depression Visibility Wind Speed Wind Dir Waves Ship Positions

Iona Mcallister

Owner: McAllister Towing & Transportation Co. Inc., Staten Island, NY. More information available from US FCC via Universal Licensing System and Coast Guard Vessel Documentation Center.

Last reported at 2017-Mar-23 04:33 UTC. Time now 2017-Mar-23 12:34 UTC.
Position N 41°38' W 071°22'.

Length 36 m; draft 3 m.

Type: Towing. MMSI: 367149890.

Date/timePositionNaut miles runAvg speedWind from/ knotsBaromVisibWave heightAir tempDewpointWater temp
2017-Mar-23 04:33N 41°38' W 071°22'8 7.7
2017-Mar-23 03:33N 41°46' W 071°23'3 0.3
2017-Mar-22 17:26N 41°49' W 071°24'0 0.0
2017-Mar-22 16:30N 41°49' W 071°24'0 0.0
2017-Mar-22 15:27N 41°49' W 071°24'0 0.0
2017-Mar-22 14:33N 41°49' W 071°24'0 0.0
2017-Mar-22 13:32N 41°49' W 071°24'0 0.2
2017-Mar-22 11:13N 41°49' W 071°24'2 1.5
2017-Mar-22 09:33N 41°46' W 071°22'11 0.3
2017-Mar-20 21:27N 41°35' W 071°23'14 0.8
2017-Mar-20 05:09N 41°49' W 071°24'0 0.0
2017-Mar-20 04:28N 41°49' W 071°24'0 0.0
2017-Mar-20 03:30N 41°49' W 071°24'0 0.0
2017-Mar-20 02:31N 41°49' W 071°24'0 0.0
2017-Mar-19 22:08N 41°49' W 071°24'2 4.0
2017-Mar-19 21:33N 41°47' W 071°22'1 0.7
2017-Mar-19 20:33N 41°46' W 071°22'1 0.7
2017-Mar-19 18:31N 41°48' W 071°23'2 0.7
2017-Mar-19 16:14N 41°49' W 071°24'0 0.0
2017-Mar-19 13:18N 41°49' W 071°24'0 0.0
2017-Mar-19 12:20N 41°49' W 071°24'0 0.0
2017-Mar-19 10:33N 41°49' W 071°24'2 0.2
2017-Mar-19 00:10N 41°47' W 071°23'5 8.5
2017-Mar-18 23:33N 41°42' W 071°20'6 5.2
2017-Mar-18 22:18N 41°37' W 071°24'0 0.0
2017-Mar-18 10:32N 41°37' W 071°24'1 0.8
2017-Mar-18 09:33N 41°36' W 071°24'1 0.7
2017-Mar-18 08:22N 41°37' W 071°24'0 0.0
2017-Mar-18 07:33N 41°37' W 071°24'0 0.0
2017-Mar-18 06:33N 41°37' W 071°24'0 0.0
2017-Mar-18 05:33N 41°37' W 071°24'0 0.0
2017-Mar-18 04:32N 41°37' W 071°24'0 0.0
2017-Mar-18 03:29N 41°37' W 071°24'0 0.0
2017-Mar-18 02:27N 41°37' W 071°24'0 0.1
2017-Mar-17 21:08N 41°37' W 071°24'5 8.6
2017-Mar-17 20:33N 41°41' W 071°21'7 1.5
2017-Mar-17 16:14N 41°48' W 071°23'4 6.3
2017-Mar-17 15:33N 41°43' W 071°21'7 6.8
2017-Mar-17 14:31N 41°37' W 071°24'1 0.2
2017-Mar-17 08:33N 41°38' W 071°22'7 7.3
2017-Mar-17 07:33N 41°45' W 071°22'4 3.8
2017-Mar-17 06:27N 41°49' W 071°24'3 0.3
2017-Mar-16 18:18N 41°46' W 071°23'6 7.4
2017-Mar-16 17:33N 41°40' W 071°21'4 0.6
2017-Mar-16 10:18N 41°37' W 071°24'1 0.3
2017-Mar-16 08:25N 41°36' W 071°24'6 7.4
2017-Mar-16 07:33N 41°42' W 071°20'7 5.9
2017-Mar-16 06:26N 41°48' W 071°24'1 0.7
2017-Mar-16 05:06N 41°48' W 071°23'1 0.3
2017-Mar-16 02:33N 41°47' W 071°22'1 1.0
2017-Mar-16 01:30N 41°48' W 071°23'1 1.1
2017-Mar-16 00:20N 41°49' W 071°24'0 0.0
2017-Mar-15 23:33N 41°49' W 071°24'0 0.0
2017-Mar-15 22:29N 41°49' W 071°24'0 0.0
2017-Mar-15 21:26N 41°49' W 071°24'2 2.4
2017-Mar-15 20:32N 41°47' W 071°23'0 0.3
2017-Mar-15 19:33N 41°47' W 071°22'2 2.1
2017-Mar-15 18:25N 41°49' W 071°24'0 0.0
2017-Mar-15 11:33N 41°49' W 071°24'1 0.8
2017-Mar-15 10:33N 41°48' W 071°24'1 0.7
2017-Mar-15 09:31N 41°49' W 071°24'0 0.0
2017-Mar-15 08:33N 41°49' W 071°24'0 0.0
2017-Mar-15 07:33N 41°49' W 071°24'0 0.0
2017-Mar-15 06:33N 41°49' W 071°24'0 0.0
2017-Mar-15 05:33N 41°49' W 071°24'0 0.0
2017-Mar-15 04:34N 41°49' W 071°24'0 0.0
2017-Mar-15 03:33N 41°49' W 071°24'0 0.0
2017-Mar-15 02:33N 41°49' W 071°24'0 0.0
2017-Mar-15 01:33N 41°49' W 071°24'0 0.0
2017-Mar-15 00:33N 41°49' W 071°24'0 0.0
2017-Mar-14 23:33N 41°49' W 071°24'0 0.0
2017-Mar-14 22:33N 41°49' W 071°24'0 0.0
2017-Mar-14 21:33N 41°49' W 071°24'0 0.0
2017-Mar-14 20:33N 41°49' W 071°24'0 0.0
2017-Mar-14 19:33N 41°49' W 071°24'0 0.0
2017-Mar-14 18:33N 41°49' W 071°24'0 0.0
2017-Mar-14 17:33N 41°49' W 071°24'0 0.0
2017-Mar-14 16:09N 41°49' W 071°24'0 0.0
2017-Mar-14 15:33N 41°49' W 071°24'0 0.0
2017-Mar-14 14:32N 41°49' W 071°24'0 0.0
2017-Mar-14 13:32N 41°49' W 071°24'0 0.0
2017-Mar-14 12:30N 41°49' W 071°24'0 0.0
2017-Mar-14 11:31N 41°49' W 071°24'0 0.0
2017-Mar-14 10:33N 41°49' W 071°24'0 0.0
2017-Mar-14 09:33N 41°49' W 071°24'0 0.0
2017-Mar-14 08:32N 41°49' W 071°24'0 0.0
2017-Mar-14 07:24N 41°49' W 071°24'0 0.0
2017-Mar-14 06:34N 41°49' W 071°24'0 0.0
2017-Mar-14 05:33N 41°49' W 071°24'0 0.0
2017-Mar-14 04:33N 41°49' W 071°24'0 0.0
2017-Mar-14 03:32N 41°49' W 071°24'0 0.0
2017-Mar-14 02:33N 41°49' W 071°24'6 1.4
2017-Mar-13 22:33N 41°44' W 071°22'9 0.6
2017-Mar-13 07:33N 41°35' W 071°24'4 4.4
2017-Mar-13 06:33N 41°39' W 071°22'7 7.5
2017-Mar-13 05:34N 41°47' W 071°22'  

Dump ship's entire track history